Tocumen, Panama

10:35 PM EST on February 10, 2016 (GMT -0500)
Tocumen International | | Change Station
CLOSE
Current Station
Airport
Location: Tocumen,
Elevation: 148 ft
Nearby Weather Stations

Elev 148 ft 9.05 °N, 79.37 °W | Updated 35 minutes ago

Scattered Clouds
Scattered Clouds
82 °F
Feels Like 87 °F
N
8
Wind Variable Wind from NW

Today
High -- | Low -- °F
--% Chance of Precip.
Yesterday
High -- | Low -- °F
Precip. -- in
Pressure 29.92 in
Visibility 6.2 miles
Clouds Scattered Clouds 1800 ft
Heat Index 87 °F
Dew Point 72 °F
Humidity 70%
Rainfall 0.00 in
Snow Depth Not available.
6:37 AM 6:25 PM
Waxing Crescent, 9% visible
METAR MPTO 110300Z 32007KT 9999 SCT018 28/22 Q1013 NOSIG
Pressure 29.92 in
Visibility 6.2 miles
Clouds Scattered Clouds 1800 ft
Heat Index 87 °F
Dew Point 72 °F
Humidity 70%
Rainfall 0.00 in
Snow Depth Not available.
6:37 AM 6:25 PM
Waxing Crescent, 9% visible
METAR MPTO 110300Z 32007KT 9999 SCT018 28/22 Q1013 NOSIG

10-Day Weather Forecast

No radar image for this location.
×

Almanac

Astronomy

Feb. 10, 2016 Rise Set
Actual Time
Civil Twilight
Nautical Twilight
Astronomical Twilight
Moon
Length of Visible Light
Length of Day
Tomorrow will be .
, % of the Moon is Illuminated

Today's Extremes

Country Highs Country Lows

Community

WunderPhotos

Upload Photos

1,891,994 photos uploaded!

WunderBlog® & News

Nearby

Air Quality

  Air Quality AQ Index Pollutant
Not available.

Snow Depth

Station Depth Elevation

Earthquake Activity

City Distance Mag. Time & Date
Minimum magnitude displayed is 2.5.

Coastal Water Temperatures

Place Temperature

Stations

Nearby Weather Stations

Station Location Temp. Windchill Dew Point Humidity Wind Precip. Elev Updated Type